Time;durP1;ratioP1;P1;durP2;ratioP2;P2;SDS_P1;SDS_P2;PMS_P1;PMS_P2;Temp;Humidity;BMP_temperature;BMP_pressure;BME280_temperature;BME280_humidity;BME280_pressure;Samples;Min_cycle;Max_cycle;Signal;HPM_P1;HPM_P2
2022/03/20 00:01:46;;;;;;;22.15;6.80;;;;;;;4.23;65.55;103159.13;5093157;28;20031;-69
2022/03/20 00:04:11;;;;;;;20.67;6.70;;;;;;;4.19;65.77;103156.31;5091721;28;20028;-69
2022/03/20 00:06:37;;;;;;;21.10;7.05;;;;;;;4.25;66.16;103149.66;5093239;28;20068;-69
2022/03/20 00:09:02;;;;;;;21.45;7.75;;;;;;;4.18;66.21;103141.38;5092895;28;20078;-69
2022/03/20 00:11:28;;;;;;;21.67;7.70;;;;;;;4.09;66.94;103140.78;5092912;28;20480;-69
2022/03/20 00:13:54;;;;;;;21.13;8.38;;;;;;;4.00;67.23;103135.84;5092822;28;20020;-69
2022/03/20 00:16:19;;;;;;;22.70;8.23;;;;;;;3.98;67.32;103136.53;5093105;28;20028;-69
2022/03/20 00:18:45;;;;;;;22.30;8.55;;;;;;;3.93;67.96;103133.59;5092722;28;20073;-69
2022/03/20 00:21:11;;;;;;;22.15;8.73;;;;;;;3.87;68.60;103129.66;5092668;28;20028;-69
2022/03/20 00:23:37;;;;;;;23.05;9.18;;;;;;;3.82;68.83;103131.94;5084711;28;20028;-69
2022/03/20 00:26:02;;;;;;;21.70;8.70;;;;;;;3.79;69.12;103123.91;5092618;28;20432;-69
2022/03/20 00:28:28;;;;;;;23.15;9.00;;;;;;;3.80;69.29;103121.38;5092859;28;20149;-68
2022/03/20 00:30:54;;;;;;;23.05;9.10;;;;;;;3.73;69.95;103116.53;5092666;28;20028;-67
2022/03/20 00:33:20;;;;;;;21.90;9.07;;;;;;;3.69;69.61;103113.59;5092538;28;20032;-68
2022/03/20 00:35:46;;;;;;;22.10;8.88;;;;;;;3.64;70.62;103110.66;5092876;28;20024;-69
2022/03/20 00:38:11;;;;;;;22.63;9.25;;;;;;;3.66;70.60;103103.81;5092864;28;20455;-67
2022/03/20 00:40:37;;;;;;;23.20;9.43;;;;;;;3.56;71.20;103097.06;5092206;28;20474;-67
2022/03/20 00:43:04;;;;;;;23.70;10.27;;;;;;;3.53;71.57;103090.72;5093044;28;20035;-68
2022/03/20 00:45:29;;;;;;;23.42;10.30;;;;;;;3.48;71.67;103078.22;5092679;28;20039;-68
2022/03/20 00:47:55;;;;;;;23.85;10.73;;;;;;;3.40;72.56;103076.78;5092510;28;20024;-69
2022/03/20 00:50:21;;;;;;;24.10;10.77;;;;;;;3.41;72.94;103082.94;5092680;28;20028;-66
2022/03/20 00:52:47;;;;;;;24.65;11.70;;;;;;;3.37;74.18;103076.56;5092464;28;20030;-66
2022/03/20 00:55:12;;;;;;;24.52;10.93;;;;;;;3.33;74.21;103079.75;5092407;28;20263;-67
2022/03/20 00:57:38;;;;;;;23.50;11.00;;;;;;;3.30;74.55;103079.56;5084486;28;20025;-68
2022/03/20 01:00:05;;;;;;;24.45;11.25;;;;;;;3.29;74.97;103081.28;5092174;28;20028;-68
2022/03/20 01:02:45;;;;;;;25.30;11.15;;;;;;;3.24;75.34;103072.19;5092421;28;20470;-67
2022/03/20 01:05:11;;;;;;;24.85;11.57;;;;;;;3.21;75.57;103071.06;5083841;28;20455;-67
2022/03/20 01:07:37;;;;;;;25.08;11.82;;;;;;;3.19;76.64;103072.66;5092433;28;20120;-67
2022/03/20 01:10:04;;;;;;;24.42;11.35;;;;;;;3.13;76.35;103055.75;5090821;28;20501;-66
2022/03/20 01:12:33;;;;;;;25.35;11.98;;;;;;;3.12;77.24;103058.28;5094780;28;20028;-68
2022/03/20 01:14:59;;;;;;;25.00;12.13;;;;;;;3.12;76.56;103061.78;5096325;28;20459;-68
2022/03/20 01:17:24;;;;;;;25.48;12.00;;;;;;;3.11;77.18;103053.84;5096261;28;20024;-67
2022/03/20 01:19:51;;;;;;;24.83;12.02;;;;;;;3.06;77.28;103052.59;5096640;28;20085;-67
2022/03/20 01:22:16;;;;;;;26.75;12.77;;;;;;;3.05;77.97;103049.09;5096232;28;20020;-67
2022/03/20 01:24:42;;;;;;;25.77;12.93;;;;;;;3.00;78.15;103040.03;5095891;28;20439;-67
2022/03/20 01:27:09;;;;;;;25.13;12.98;;;;;;;3.03;77.97;103037.63;5083764;28;20077;-67
2022/03/20 01:29:34;;;;;;;26.30;13.73;;;;;;;2.95;78.17;103029.22;5095863;28;20069;-67
2022/03/20 01:32:00;;;;;;;27.58;13.85;;;;;;;2.94;77.99;103024.81;5095825;28;20036;-67
2022/03/20 01:34:26;;;;;;;27.00;14.65;;;;;;;2.94;78.52;103022.22;5096101;28;20081;-67
2022/03/20 01:36:52;;;;;;;26.77;14.75;;;;;;;2.91;78.28;103024.63;5094546;28;20020;-67
2022/03/20 01:39:18;;;;;;;26.92;14.35;;;;;;;2.92;78.28;103020.28;5095601;28;20118;-68
2022/03/20 01:41:46;;;;;;;27.75;14.90;;;;;;;2.88;78.46;103010.41;5095754;28;20611;-67
2022/03/20 01:44:11;;;;;;;27.15;15.05;;;;;;;2.86;78.20;103012.91;5095820;28;20024;-67
2022/03/20 01:46:36;;;;;;;29.35;16.70;;;;;;;2.87;78.26;103006.91;5095635;28;20031;-67
2022/03/20 01:49:02;;;;;;;29.17;16.35;;;;;;;2.83;78.27;102994.41;5095653;28;20028;-67
2022/03/20 01:54:13;;;;;;;30.05;17.90;;;;;;;2.83;77.56;102981.34;5088001;28;20076;-68
2022/03/20 01:56:43;;;;;;;30.02;18.65;;;;;;;2.84;76.68;102980.56;5082909;28;20031;-68
2022/03/20 01:59:09;;;;;;;30.45;19.48;;;;;;;2.76;77.70;102985.22;5087394;28;20024;-68
2022/03/20 02:01:35;;;;;;;30.75;19.60;;;;;;;2.81;76.84;102979.41;5095515;28;20382;-68
2022/03/20 02:04:00;;;;;;;32.95;20.80;;;;;;;2.82;76.87;102978.63;5095299;28;20024;-68
2022/03/20 02:06:26;;;;;;;31.73;20.70;;;;;;;2.73;77.21;102978.91;5095328;28;20090;-68
2022/03/20 02:08:54;;;;;;;32.80;21.40;;;;;;;2.66;77.53;102977.53;5095025;28;20034;-68
2022/03/20 02:11:20;;;;;;;32.33;21.33;;;;;;;2.63;77.79;102974.72;5095205;28;20461;-68
2022/03/20 02:13:45;;;;;;;32.67;22.42;;;;;;;2.54;77.96;102963.63;5095095;28;20016;-68
2022/03/20 02:16:12;;;;;;;34.28;22.30;;;;;;;2.53;77.90;102962.69;5095000;28;20082;-68
2022/03/20 02:18:38;;;;;;;33.47;22.77;;;;;;;2.47;78.63;102951.84;5094842;28;20020;-68
2022/03/20 02:21:03;;;;;;;35.20;23.60;;;;;;;2.44;78.44;102960.34;5095354;28;20024;-67
2022/03/20 02:23:30;;;;;;;35.75;23.60;;;;;;;2.49;77.94;102954.56;5094443;28;20050;-67
2022/03/20 02:25:56;;;;;;;34.88;24.35;;;;;;;2.48;77.75;102947.53;5095031;28;20441;-68
2022/03/20 02:28:21;;;;;;;35.92;23.77;;;;;;;2.47;77.81;102946.59;5095152;28;20054;-68
2022/03/20 02:30:46;;;;;;;35.60;23.88;;;;;;;2.50;77.17;102946.81;5094552;28;20429;-67
2022/03/20 02:33:13;;;;;;;34.58;24.50;;;;;;;2.53;76.93;102946.13;5094627;28;20035;-68
2022/03/20 02:35:39;;;;;;;35.60;24.83;;;;;;;2.47;76.90;102937.88;5086479;28;20137;-68
2022/03/20 02:38:09;;;;;;;35.97;24.80;;;;;;;2.43;76.98;102939.34;5094567;28;20020;-67
2022/03/20 02:40:34;;;;;;;34.92;24.65;;;;;;;2.41;76.78;102943.56;5094447;28;20040;-67
2022/03/20 02:43:01;;;;;;;36.30;25.35;;;;;;;2.39;76.99;102937.34;5094906;28;20481;-67
2022/03/20 02:45:29;;;;;;;36.33;25.70;;;;;;;2.42;76.48;102933.22;5094457;28;20024;-67
2022/03/20 02:47:56;;;;;;;35.85;25.23;;;;;;;2.37;76.92;102928.47;5094372;28;20024;-67
2022/03/20 02:50:28;;;;;;;36.80;25.55;;;;;;;2.35;76.87;102927.47;5094556;28;20369;-67
2022/03/20 02:53:15;;;;;;;36.58;25.90;;;;;;;2.30;77.10;102915.78;5094052;28;20474;-67
2022/03/20 02:55:46;;;;;;;37.05;26.45;;;;;;;2.25;77.08;102918.97;5086306;28;20040;-67
2022/03/20 02:58:18;;;;;;;37.78;26.48;;;;;;;2.24;76.68;102911.03;5086846;28;20031;-67
2022/03/20 03:00:44;;;;;;;37.65;26.77;;;;;;;2.28;76.67;102913.06;5086957;28;20031;-67
2022/03/20 03:03:13;;;;;;;36.85;26.77;;;;;;;2.18;77.68;102908.00;5086136;28;20031;-67
2022/03/20 03:05:41;;;;;;;38.72;28.02;;;;;;;2.17;77.47;102912.31;5094014;28;20107;-67
2022/03/20 03:10:56;;;;;;;38.20;27.83;;;;;;;2.13;77.10;102902.44;5089315;28;20089;-67
2022/03/20 03:13:23;;;;;;;39.60;28.90;;;;;;;2.17;76.68;102899.28;5094032;28;20424;-67
2022/03/20 03:15:52;;;;;;;38.08;28.17;;;;;;;2.15;76.92;102905.16;5094099;28;20379;-67
2022/03/20 03:18:20;;;;;;;39.65;28.63;;;;;;;2.15;76.50;102893.00;5093990;28;20024;-68
2022/03/20 03:20:45;;;;;;;39.05;29.33;;;;;;;2.16;76.53;102883.50;5093871;28;20028;-68
2022/03/20 03:23:11;;;;;;;38.60;28.38;;;;;;;2.16;76.63;102883.50;5093750;28;20085;-68
2022/03/20 03:25:38;;;;;;;38.97;29.38;;;;;;;2.09;76.95;102879.53;5093604;28;20027;-68
2022/03/20 03:28:04;;;;;;;40.30;29.17;;;;;;;2.09;77.01;102872.59;5094105;28;20032;-68
2022/03/20 03:30:29;;;;;;;40.15;29.75;;;;;;;2.04;77.24;102871.38;5093561;28;20437;-68
2022/03/20 03:32:56;;;;;;;42.30;30.65;;;;;;;2.01;77.54;102875.47;5093361;28;20028;-68
2022/03/20 03:38:05;;;;;;;39.72;30.17;;;;;;;1.92;77.95;102865.28;5093926;28;20101;-68
2022/03/20 03:40:31;;;;;;;40.47;30.40;;;;;;;1.87;78.90;102861.44;5093205;28;20036;-68
2022/03/20 03:42:57;;;;;;;40.97;29.80;;;;;;;1.83;78.44;102854.19;5091641;28;20455;-68
2022/03/20 03:45:24;;;;;;;40.42;30.17;;;;;;;1.77;79.33;102848.53;5093366;28;20023;-68
2022/03/20 03:47:51;;;;;;;43.60;30.92;;;;;;;1.71;79.91;102846.41;5091238;28;20043;-68
2022/03/20 03:50:16;;;;;;;41.90;31.55;;;;;;;1.70;80.10;102836.75;5093376;28;20016;-68
2022/03/20 03:52:42;;;;;;;41.10;30.42;;;;;;;1.66;80.61;102832.09;5093443;28;20390;-68
2022/03/20 03:55:07;;;;;;;42.08;30.33;;;;;;;1.61;81.56;102837.00;5093138;28;20030;-68
2022/03/20 03:57:32;;;;;;;41.55;31.00;;;;;;;1.60;81.55;102829.94;5093028;28;20028;-69
2022/03/20 03:59:58;;;;;;;41.95;31.38;;;;;;;1.54;81.72;102833.06;5093074;28;20135;-68
2022/03/20 04:02:24;;;;;;;41.35;31.80;;;;;;;1.51;82.59;102834.50;5093207;28;20028;-68
2022/03/20 04:04:49;;;;;;;44.53;31.00;;;;;;;1.51;82.01;102829.28;5093170;28;20024;-67
2022/03/20 04:07:18;;;;;;;41.78;31.23;;;;;;;1.45;83.65;102834.06;5093203;28;20035;-68
2022/03/20 04:09:44;;;;;;;43.22;31.30;;;;;;;1.40;84.44;102828.53;5092920;28;20099;-69
2022/03/20 04:12:13;;;;;;;42.33;31.35;;;;;;;1.37;84.94;102820.47;5084888;28;20103;-68
2022/03/20 04:14:39;;;;;;;41.72;31.08;;;;;;;1.31;85.53;102814.78;5093424;28;20109;-68
2022/03/20 04:17:06;;;;;;;41.78;30.80;;;;;;;1.31;85.36;102810.50;5092992;28;20023;-68
2022/03/20 04:19:31;;;;;;;43.17;32.17;;;;;;;1.29;85.73;102806.88;5092928;28;20035;-68
2022/03/20 04:21:57;;;;;;;42.22;32.67;;;;;;;1.27;86.26;102798.03;5093008;28;20023;-68
2022/03/20 04:24:22;;;;;;;43.03;32.30;;;;;;;1.25;86.02;102797.00;5092645;28;20487;-69
2022/03/20 04:26:48;;;;;;;42.30;32.38;;;;;;;1.27;86.07;102781.47;5092911;28;20012;-68
2022/03/20 04:29:13;;;;;;;42.97;32.55;;;;;;;1.26;85.86;102783.19;5092662;28;20115;-67
2022/03/20 04:31:40;;;;;;;43.13;32.25;;;;;;;1.23;86.71;102777.75;5092794;28;20048;-67
2022/03/20 04:34:05;;;;;;;44.40;33.95;;;;;;;1.21;86.74;102772.44;5092919;28;20028;-68
2022/03/20 04:36:31;;;;;;;43.92;33.53;;;;;;;1.26;86.18;102761.44;5092603;28;20024;-68
2022/03/20 04:38:59;;;;;;;43.58;33.08;;;;;;;1.25;85.81;102765.72;5092775;28;20107;-66
2022/03/20 04:41:25;;;;;;;44.75;33.78;;;;;;;1.23;86.25;102769.06;5092731;28;20070;-67
2022/03/20 04:43:51;;;;;;;43.05;32.97;;;;;;;1.20;86.30;102769.72;5092498;28;20111;-66
2022/03/20 04:46:17;;;;;;;43.58;33.05;;;;;;;1.19;86.33;102773.13;5092967;28;20047;-67
2022/03/20 04:59:39;;;;;;;43.92;33.30;;;;;;;0.93;89.14;102759.06;5096815;28;20051;-66
2022/03/20 05:02:05;;;;;;;44.15;34.63;;;;;;;0.90;90.38;102730.19;5096470;28;20445;-66
2022/03/20 05:04:30;;;;;;;43.75;33.60;;;;;;;0.84;90.43;102745.38;5096367;28;20021;-67
2022/03/20 05:06:56;;;;;;;43.25;34.15;;;;;;;0.81;91.07;102742.53;5096466;28;20084;-66
2022/03/20 05:14:50;;;;;;;45.42;33.70;;;;;;;0.69;92.67;102742.53;5090588;28;20035;-67
2022/03/20 05:17:15;;;;;;;45.25;33.80;;;;;;;0.69;93.39;102743.44;5094983;28;20398;-67
2022/03/20 05:19:41;;;;;;;43.47;33.42;;;;;;;0.64;93.91;102742.19;5096273;28;20032;-67
2022/03/20 05:22:10;;;;;;;43.85;33.95;;;;;;;0.65;93.20;102732.69;5095987;28;20028;-67
2022/03/20 05:24:35;;;;;;;45.17;33.83;;;;;;;0.64;93.82;102731.78;5096451;28;20649;-67
2022/03/20 05:27:01;;;;;;;44.92;34.38;;;;;;;0.62;93.55;102724.66;5096394;28;20107;-67
2022/03/20 05:29:27;;;;;;;42.97;33.10;;;;;;;0.62;93.70;102722.94;5096193;28;20389;-67
2022/03/20 05:31:53;;;;;;;43.45;33.45;;;;;;;0.64;93.39;102721.38;5096075;28;20061;-68
2022/03/20 05:34:19;;;;;;;43.63;33.13;;;;;;;0.65;93.31;102727.47;5096087;28;20028;-68
2022/03/20 05:36:45;;;;;;;44.33;33.20;;;;;;;0.63;93.52;102719.56;5095560;28;20024;-68
2022/03/20 05:39:10;;;;;;;44.78;33.92;;;;;;;0.61;93.50;102717.63;5095965;28;20028;-66
2022/03/20 05:41:48;;;;;;;43.80;33.42;;;;;;;0.57;93.89;102721.69;5095642;28;20130;-68
2022/03/20 05:44:22;;;;;;;42.22;32.85;;;;;;;0.57;93.58;102711.28;5092000;28;20519;-68
2022/03/20 05:46:49;;;;;;;43.60;32.97;;;;;;;0.54;93.92;102705.84;5089349;28;20065;-68
2022/03/20 05:49:15;;;;;;;42.97;32.92;;;;;;;0.58;93.46;102701.78;5095577;28;20451;-69
2022/03/20 05:51:41;;;;;;;44.30;32.35;;;;;;;0.58;93.41;102701.78;5087522;28;20024;-69
2022/03/20 05:54:07;;;;;;;44.45;33.05;;;;;;;0.58;92.21;102694.84;5095558;28;20039;-66
2022/03/20 05:59:17;;;;;;;43.25;32.65;;;;;;;0.66;90.96;102698.94;5088848;28;20055;-68
2022/03/20 06:01:43;;;;;;;42.70;32.78;;;;;;;0.65;91.02;102694.53;5095543;28;20020;-68
2022/03/20 06:04:09;;;;;;;44.05;33.15;;;;;;;0.65;91.28;102696.22;5095118;28;20088;-69
2022/03/20 06:06:37;;;;;;;43.55;32.67;;;;;;;0.69;90.82;102696.56;5095662;28;20388;-66
2022/03/20 06:09:04;;;;;;;43.70;32.42;;;;;;;0.68;90.77;102699.06;5095084;28;20116;-67
2022/03/20 06:11:30;;;;;;;43.47;31.90;;;;;;;0.69;89.99;102693.06;5095064;28;20020;-66
2022/03/20 06:13:55;;;;;;;43.42;32.92;;;;;;;0.72;89.79;102682.88;5095460;28;20367;-68
2022/03/20 06:16:23;;;;;;;44.63;33.15;;;;;;;0.76;88.71;102689.19;5095006;28;20035;-67
2022/03/20 06:18:49;;;;;;;42.50;31.92;;;;;;;0.79;87.87;102687.75;5095112;28;20024;-68
2022/03/20 06:21:14;;;;;;;41.22;29.05;;;;;;;0.86;86.18;102678.69;5095120;28;20387;-67
2022/03/20 06:23:40;;;;;;;42.35;32.13;;;;;;;0.94;85.16;102685.34;5090554;28;20024;-67
2022/03/20 06:26:07;;;;;;;42.05;30.60;;;;;;;1.03;84.12;102679.91;5077258;28;20032;-67
2022/03/20 06:28:33;;;;;;;41.72;31.25;;;;;;;1.11;82.49;102680.47;5080468;28;20032;-67
2022/03/20 06:30:58;;;;;;;41.55;31.30;;;;;;;1.18;81.46;102682.69;5076744;28;20490;-68
2022/03/20 06:33:25;;;;;;;42.70;31.55;;;;;;;1.25;80.78;102686.66;5078860;28;20068;-68
2022/03/20 06:35:54;;;;;;;42.30;29.92;;;;;;;1.41;78.85;102692.16;5078810;28;20391;-68
2022/03/20 06:38:20;;;;;;;41.45;30.92;;;;;;;1.52;78.12;102685.13;5074251;28;20090;-68
2022/03/20 06:40:45;;;;;;;39.88;29.50;;;;;;;1.69;77.12;102679.41;5079641;28;20124;-67
2022/03/20 06:43:11;;;;;;;41.67;30.60;;;;;;;1.78;76.30;102679.13;5079555;28;20103;-67
2022/03/20 06:45:36;;;;;;;42.65;30.20;;;;;;;1.90;75.60;102679.97;5078607;28;20036;-67
2022/03/20 06:48:02;;;;;;;39.85;29.00;;;;;;;2.05;73.20;102668.78;5076890;28;20032;-66
2022/03/20 06:50:28;;;;;;;40.15;29.52;;;;;;;2.22;70.63;102665.59;5076161;28;20025;-67
2022/03/20 06:52:53;;;;;;;39.72;28.20;;;;;;;2.33;70.39;102668.94;5077974;28;20028;-66
2022/03/20 06:55:19;;;;;;;41.38;29.73;;;;;;;2.42;70.58;102672.16;5078107;28;20387;-68
2022/03/20 06:57:45;;;;;;;39.50;28.98;;;;;;;2.53;69.88;102657.19;5077674;28;20604;-67
2022/03/20 07:00:12;;;;;;;40.38;28.55;;;;;;;2.65;68.14;102658.81;5075557;28;20036;-66
2022/03/20 07:02:38;;;;;;;39.33;28.65;;;;;;;2.72;67.05;102651.50;5075491;28;20021;-67
2022/03/20 07:05:04;;;;;;;39.72;28.15;;;;;;;2.78;66.27;102657.13;5078056;28;20456;-67
2022/03/20 07:07:29;;;;;;;38.80;28.13;;;;;;;2.81;67.12;102653.81;5079562;28;20541;-67
2022/03/20 07:09:55;;;;;;;38.13;27.27;;;;;;;2.84;66.23;102645.25;5076959;28;20064;-67
2022/03/20 07:12:20;;;;;;;39.10;28.27;;;;;;;2.88;65.88;102647.25;5077684;28;20118;-66
2022/03/20 07:14:46;;;;;;;39.40;28.30;;;;;;;2.93;65.10;102645.84;5079825;28;20035;-67
2022/03/20 07:17:14;;;;;;;37.55;26.30;;;;;;;2.96;64.60;102646.06;5077342;28;20133;-66
2022/03/20 07:19:44;;;;;;;39.78;28.05;;;;;;;3.03;64.48;102636.88;5079945;28;20047;-66
2022/03/20 07:22:12;;;;;;;38.50;26.85;;;;;;;3.10;63.01;102629.53;5075479;28;20040;-68
2022/03/20 07:24:39;;;;;;;37.65;26.95;;;;;;;3.20;62.31;102630.13;5075830;28;20028;-67
2022/03/20 07:29:49;;;;;;;38.15;26.90;;;;;;;3.37;60.06;102605.03;5076877;28;20102;-67
2022/03/20 07:32:15;;;;;;;37.58;26.55;;;;;;;3.41;58.64;102618.38;5076057;28;20020;-68
2022/03/20 07:34:44;;;;;;;37.55;26.40;;;;;;;3.45;59.61;102612.53;5079631;28;20485;-68
2022/03/20 07:37:09;;;;;;;36.40;26.80;;;;;;;3.52;59.39;102612.91;5075411;28;20398;-67
2022/03/20 07:39:35;;;;;;;36.70;25.63;;;;;;;3.54;57.42;102601.75;5083806;28;20024;-67
2022/03/20 07:42:01;;;;;;;37.10;26.27;;;;;;;3.48;58.55;102612.72;5093572;28;20078;-67
2022/03/20 07:44:31;;;;;;;38.20;26.67;;;;;;;3.45;58.00;102624.69;5093372;28;20039;-67
2022/03/20 07:47:12;;;;;;;37.72;27.05;;;;;;;3.48;57.22;102617.03;5086607;28;20050;-67
2022/03/20 07:49:38;;;;;;;36.88;25.60;;;;;;;3.42;57.88;102620.19;5085146;28;20078;-66
2022/03/20 07:52:05;;;;;;;37.85;26.55;;;;;;;3.42;57.79;102611.44;5093508;28;20419;-66
2022/03/20 07:54:31;;;;;;;37.03;25.60;;;;;;;3.48;56.24;102615.34;5093461;28;20035;-66
2022/03/20 07:56:57;;;;;;;37.28;25.98;;;;;;;3.53;56.94;102614.72;5093066;28;20479;-68
2022/03/20 07:59:22;;;;;;;36.70;25.65;;;;;;;3.59;56.26;102620.31;5093303;28;20081;-68
2022/03/20 08:01:47;;;;;;;37.47;26.05;;;;;;;3.50;56.82;102615.44;5093207;28;20066;-68
2022/03/20 08:04:13;;;;;;;38.28;25.83;;;;;;;3.48;56.11;102614.41;5093043;28;20482;-67
2022/03/20 08:06:38;;;;;;;37.05;25.88;;;;;;;3.47;55.75;102605.69;5093187;28;20036;-67
2022/03/20 08:09:03;;;;;;;37.05;25.58;;;;;;;3.45;56.34;102602.09;5093010;28;20020;-67
2022/03/20 08:11:30;;;;;;;36.78;25.95;;;;;;;3.44;56.63;102605.50;5093260;28;20028;-67
2022/03/20 08:13:57;;;;;;;37.42;25.48;;;;;;;3.41;55.61;102600.09;5084848;28;20112;-67
2022/03/20 08:16:25;;;;;;;36.90;25.50;;;;;;;3.42;55.88;102598.34;5092625;28;20027;-68
2022/03/20 08:18:51;;;;;;;37.20;25.58;;;;;;;3.49;54.60;102598.84;5092736;28;20090;-67
2022/03/20 08:21:17;;;;;;;35.45;25.08;;;;;;;3.44;54.28;102595.03;5093010;28;20032;-66
2022/03/20 08:23:43;;;;;;;36.55;25.35;;;;;;;3.49;55.29;102598.84;5090826;28;20387;-67
2022/03/20 08:26:09;;;;;;;35.88;25.45;;;;;;;3.54;54.75;102591.28;5092678;28;20024;-67
2022/03/20 08:28:37;;;;;;;36.78;25.65;;;;;;;3.60;54.70;102594.25;5092891;28;20403;-67
2022/03/20 08:31:02;;;;;;;36.90;26.23;;;;;;;3.61;54.33;102593.47;5092472;28;20028;-67
2022/03/20 08:33:28;;;;;;;37.83;26.13;;;;;;;3.63;54.73;102588.31;5093026;28;20027;-68
2022/03/20 08:35:53;;;;;;;37.38;26.25;;;;;;;3.72;54.69;102581.03;5092704;28;20467;-67
2022/03/20 08:38:18;;;;;;;37.47;25.92;;;;;;;3.76;54.61;102582.13;5085508;28;20028;-68
2022/03/20 08:40:44;;;;;;;37.45;26.80;;;;;;;3.77;55.37;102584.81;5083927;28;20051;-69
2022/03/20 08:43:15;;;;;;;35.88;25.88;;;;;;;3.78;55.23;102575.25;5090421;28;20111;-69
2022/03/20 08:45:41;;;;;;;39.03;26.15;;;;;;;3.75;54.02;102590.78;5092330;28;20030;-68
2022/03/20 08:48:06;;;;;;;36.28;24.90;;;;;;;3.71;54.14;102580.94;5088666;28;20027;-68
2022/03/20 08:50:32;;;;;;;36.85;25.63;;;;;;;3.69;54.88;102580.84;5093049;28;20402;-69
2022/03/20 08:52:57;;;;;;;36.10;25.25;;;;;;;3.74;55.95;102586.34;5092377;28;20017;-69
2022/03/20 08:55:22;;;;;;;36.88;26.35;;;;;;;3.79;55.66;102584.91;5087471;28;20047;-69
2022/03/20 08:57:48;;;;;;;37.50;26.23;;;;;;;3.83;55.07;102600.88;5092435;28;20028;-69
2022/03/20 09:00:16;;;;;;;35.85;25.85;;;;;;;3.86;55.77;102588.78;5092229;28;20060;-68
2022/03/20 09:02:43;;;;;;;36.08;25.73;;;;;;;3.87;55.20;102593.22;5092582;28;20035;-68
2022/03/20 09:05:11;;;;;;;37.65;26.58;;;;;;;3.84;56.65;102592.22;5092480;28;20027;-68
2022/03/20 09:07:40;;;;;;;35.75;25.80;;;;;;;3.83;56.29;102590.41;5092323;28;20064;-67
2022/03/20 09:10:07;;;;;;;38.13;27.58;;;;;;;3.89;55.34;102587.28;5089799;28;20029;-68
2022/03/20 09:12:32;;;;;;;39.50;28.48;;;;;;;3.98;56.06;102587.81;5092499;28;20028;-68
2022/03/20 09:14:58;;;;;;;38.67;27.48;;;;;;;4.24;55.94;102579.66;5091940;28;20130;-68
2022/03/20 09:20:08;;;;;;;37.17;26.70;;;;;;;5.49;52.58;102555.06;5085051;28;20047;-66
2022/03/20 09:22:34;;;;;;;35.75;26.10;;;;;;;6.55;49.12;102557.81;5092306;28;20428;-66
2022/03/20 09:25:00;;;;;;;37.38;26.20;;;;;;;7.43;47.05;102553.97;5092383;28;20032;-67
2022/03/20 09:27:25;;;;;;;37.05;26.20;;;;;;;8.26;44.46;102545.19;5092318;28;20078;-67
2022/03/20 09:29:50;;;;;;;36.70;25.75;;;;;;;8.99;43.27;102544.56;5091945;28;20099;-67
2022/03/20 09:32:17;;;;;;;39.17;26.63;;;;;;;9.39;41.85;102531.94;5092879;28;20020;-68
2022/03/20 09:34:42;;;;;;;36.05;25.00;;;;;;;9.25;40.90;102534.97;5096027;28;20533;-70
2022/03/20 09:37:07;;;;;;;35.72;25.63;;;;;;;8.93;41.40;102531.16;5095817;28;20032;-70
2022/03/20 09:39:33;;;;;;;36.55;24.67;;;;;;;8.33;41.54;102532.31;5095551;28;20463;-68
2022/03/20 09:41:59;;;;;;;37.05;26.13;;;;;;;7.83;43.58;102529.38;5095795;28;20079;-69
2022/03/20 09:44:25;;;;;;;36.30;26.25;;;;;;;8.03;43.57;102511.75;5095561;28;20046;-67
2022/03/20 09:46:51;;;;;;;36.20;25.05;;;;;;;8.71;42.47;102501.31;5095783;28;20028;-67
2022/03/20 09:49:18;;;;;;;36.03;26.65;;;;;;;9.68;40.94;102518.88;5095684;28;20544;-70
2022/03/20 09:51:44;;;;;;;36.25;26.15;;;;;;;10.06;39.79;102516.63;5095497;28;20039;-70
2022/03/20 09:54:13;;;;;;;35.42;25.52;;;;;;;9.57;39.80;102511.47;5095414;28;20024;-69
2022/03/20 09:56:40;;;;;;;35.40;25.15;;;;;;;9.08;39.94;102517.63;5095719;28;20032;-69
2022/03/20 09:59:06;;;;;;;37.63;26.45;;;;;;;8.95;41.55;102512.75;5095153;28;20024;-69
2022/03/20 10:01:33;;;;;;;37.10;26.35;;;;;;;8.68;41.96;102510.84;5095289;28;20086;-69
2022/03/20 10:04:14;;;;;;;37.38;27.25;;;;;;;8.45;43.51;102510.84;5095760;28;20028;-69
2022/03/20 10:06:41;;;;;;;38.10;27.25;;;;;;;7.70;43.30;102524.41;5089099;28;20016;-68
2022/03/20 10:09:12;;;;;;;38.00;27.65;;;;;;;7.42;44.77;102506.53;5095219;28;20024;-68
2022/03/20 10:11:48;;;;;;;37.50;27.80;;;;;;;7.31;46.46;102506.97;5087883;28;20111;-68
2022/03/20 10:14:22;;;;;;;38.70;27.50;;;;;;;7.24;45.66;102515.41;5089683;28;20028;-68
2022/03/20 10:17:11;;;;;;;40.08;28.63;;;;;;;7.32;46.21;102523.63;5095203;28;20096;-69
2022/03/20 10:19:37;;;;;;;37.80;27.95;;;;;;;7.05;46.58;102518.03;5087736;28;20024;-70
2022/03/20 10:22:08;;;;;;;38.67;28.80;;;;;;;6.92;47.07;102511.31;5094969;28;20106;-67
2022/03/20 10:24:39;;;;;;;40.38;30.38;;;;;;;6.77;46.93;102511.50;5133154;22;20515;-69
2022/03/20 10:27:06;;;;;;;42.00;31.80;;;;;;;6.69;46.90;102510.25;5065974;28;20043;-68
2022/03/20 10:29:35;;;;;;;42.00;31.98;;;;;;;6.56;47.69;102517.56;5064021;28;20028;-68
2022/03/20 10:32:02;;;;;;;41.65;31.60;;;;;;;6.65;48.99;102503.06;5065107;28;20087;-67
2022/03/20 10:34:28;;;;;;;41.00;30.77;;;;;;;6.72;51.68;102502.50;5064396;28;20021;-69
2022/03/20 10:36:53;;;;;;;42.38;31.40;;;;;;;6.62;54.00;102507.31;5064097;28;20024;-68
2022/03/20 10:39:21;;;;;;;43.70;33.50;;;;;;;6.59;55.84;102508.91;5065615;28;20180;-69
2022/03/20 10:41:53;;;;;;;41.50;32.83;;;;;;;6.64;55.46;102520.56;5063081;28;20071;-69
2022/03/20 10:44:22;;;;;;;43.65;33.40;;;;;;;7.02;55.61;102510.00;5065699;28;20024;-68
2022/03/20 10:47:09;;;;;;;42.78;33.28;;;;;;;7.45;55.03;102507.53;5063264;28;20025;-69
2022/03/20 10:49:35;;;;;;;41.80;32.90;;;;;;;7.92;53.30;102497.28;5063048;28;20025;-67
2022/03/20 10:52:05;;;;;;;40.80;31.40;;;;;;;8.01;53.37;102516.06;5065032;28;20033;-67
2022/03/20 10:54:50;;;;;;;40.65;31.77;;;;;;;7.91;54.16;102513.91;5063996;28;20090;-68
2022/03/20 10:57:15;;;;;;;41.65;32.65;;;;;;;7.58;55.00;102516.00;5057314;28;20403;-68
2022/03/20 10:59:42;;;;;;;42.28;33.83;;;;;;;7.23;57.02;102520.59;5065922;28;20029;-69
2022/03/20 11:02:24;;;;;;;41.55;32.45;;;;;;;7.38;57.46;102516.00;5062236;28;20021;-69
2022/03/20 11:04:50;;;;;;;42.70;33.35;;;;;;;7.19;59.31;102530.06;5060251;28;20060;-68
2022/03/20 11:07:17;;;;;;;42.35;32.13;;;;;;;7.08;60.10;102529.59;5065088;28;20032;-68
2022/03/20 11:09:47;;;;;;;43.97;33.38;;;;;;;6.79;61.13;102533.50;5062453;28;20031;-67
2022/03/20 11:12:17;;;;;;;44.35;33.78;;;;;;;6.76;62.26;102536.00;5058340;28;20045;-68
2022/03/20 11:14:43;;;;;;;43.97;34.55;;;;;;;6.71;62.27;102532.25;5058366;28;20017;-69
2022/03/20 11:17:13;;;;;;;42.90;34.25;;;;;;;6.71;63.62;102548.00;5065332;28;20040;-70
2022/03/20 11:19:46;;;;;;;45.38;34.92;;;;;;;6.63;62.97;102535.41;5062174;28;20038;-69
2022/03/20 11:22:14;;;;;;;44.75;34.83;;;;;;;6.70;62.49;102536.63;5058066;28;20021;-69
2022/03/20 11:24:41;;;;;;;44.17;35.63;;;;;;;6.65;62.54;102534.59;5065217;28;20041;-67
2022/03/20 11:27:10;;;;;;;45.17;35.40;;;;;;;6.51;62.98;102534.84;5062122;28;20032;-68
2022/03/20 11:29:50;;;;;;;44.30;34.83;;;;;;;6.57;63.29;102537.75;5064502;28;20060;-69
2022/03/20 11:32:18;;;;;;;43.97;35.55;;;;;;;6.59;63.09;102522.94;5058350;28;20027;-69
2022/03/20 11:34:46;;;;;;;44.80;36.05;;;;;;;6.71;63.36;102535.75;5065360;28;20055;-69
2022/03/20 11:37:15;;;;;;;43.85;34.60;;;;;;;6.87;62.93;102532.13;5057574;28;20029;-69
2022/03/20 11:40:13;;;;;;;45.45;36.67;;;;;;;6.90;62.32;102536.63;5057751;28;20045;-69
2022/03/20 11:42:40;;;;;;;44.88;35.20;;;;;;;7.16;62.33;102516.78;5064406;28;20025;-69
2022/03/20 11:45:06;;;;;;;45.00;36.42;;;;;;;7.15;60.98;102529.03;5062141;28;20043;-67
2022/03/20 11:47:32;;;;;;;43.55;33.58;;;;;;;7.23;61.33;102539.00;5063687;28;20021;-69
2022/03/20 11:50:13;;;;;;;44.72;35.67;;;;;;;7.18;59.48;102536.19;5062894;28;20020;-70